createdAt,value
2023-02-26T00:01:24.711Z,7.88
2023-02-26T00:03:57.462Z,10.38
2023-02-26T00:06:25.818Z,9.40
2023-02-26T00:08:53.998Z,6.80
2023-02-26T00:11:21.582Z,6.88
2023-02-26T00:13:48.812Z,9.27
2023-02-26T00:16:26.325Z,8.85
2023-02-26T00:18:53.254Z,6.85
2023-02-26T00:21:22.151Z,8.57
2023-02-26T00:23:49.393Z,7.80
2023-02-26T00:26:16.008Z,7.72
2023-02-26T00:28:43.039Z,6.72
2023-02-26T00:31:10.363Z,9.70
2023-02-26T00:33:37.411Z,5.63
2023-02-26T00:36:20.764Z,6.10
2023-02-26T00:39:01.998Z,7.18
2023-02-26T00:41:29.554Z,7.25
2023-02-26T00:43:56.421Z,7.05
2023-02-26T00:46:36.867Z,5.53
2023-02-26T00:49:32.472Z,6.85
2023-02-26T00:52:05.280Z,9.00
2023-02-26T00:54:33.144Z,7.82
2023-02-26T00:57:00.272Z,7.97
2023-02-26T00:59:26.960Z,8.40
2023-02-26T01:01:53.854Z,8.07
2023-02-26T01:04:22.831Z,6.15
2023-02-26T01:06:55.371Z,7.70
2023-02-26T01:09:35.410Z,8.90
2023-02-26T01:12:08.984Z,6.95
2023-02-26T01:14:36.665Z,6.82
2023-02-26T01:17:18.732Z,5.43
2023-02-26T01:19:59.581Z,8.05
2023-02-26T01:22:48.613Z,5.75
2023-02-26T01:25:21.544Z,10.05
2023-02-26T01:27:48.213Z,6.70
2023-02-26T01:30:15.458Z,8.85
2023-02-26T01:32:44.884Z,6.85
2023-02-26T01:35:52.990Z,9.50
2023-02-26T01:38:32.228Z,6.38
2023-02-26T01:41:17.492Z,7.80
2023-02-26T01:44:00.986Z,6.00
2023-02-26T01:47:00.289Z,7.43
2023-02-26T01:49:27.228Z,8.05
2023-02-26T01:51:55.490Z,7.70
2023-02-26T01:54:26.476Z,7.35
2023-02-26T01:56:57.837Z,7.13
2023-02-26T01:59:24.826Z,6.13
2023-02-26T02:01:57.785Z,6.70
2023-02-26T02:04:25.164Z,6.20
2023-02-26T02:06:52.399Z,6.32
2023-02-26T02:09:19.306Z,5.05
2023-02-26T02:12:29.192Z,5.78
2023-02-26T02:15:23.277Z,6.15
2023-02-26T02:18:07.044Z,7.88
2023-02-26T02:20:46.280Z,4.30
2023-02-26T02:23:36.820Z,5.43
2023-02-26T02:26:40.964Z,5.53
2023-02-26T02:29:23.627Z,3.53
2023-02-26T02:31:54.262Z,5.07
2023-02-26T03:30:19.255Z,4.57
2023-02-26T03:32:51.499Z,4.75
2023-02-26T03:35:25.394Z,3.00
2023-02-26T03:37:57.311Z,3.75
2023-02-26T03:40:32.088Z,4.18
2023-02-26T03:43:24.840Z,4.97
2023-02-26T03:45:56.296Z,3.58
2023-02-26T03:48:27.232Z,5.93
2023-02-26T03:51:00.724Z,2.88
2023-02-26T03:53:32.201Z,7.05
2023-02-26T03:56:18.489Z,3.10
2023-02-26T03:58:45.509Z,7.28
2023-02-26T04:01:19.918Z,5.72
2023-02-26T04:03:53.820Z,4.40
2023-02-26T04:06:21.686Z,5.13
2023-02-26T04:08:48.514Z,5.30
2023-02-26T04:11:18.520Z,5.63
2023-02-26T04:13:45.831Z,6.13
2023-02-26T04:16:13.774Z,4.50
2023-02-26T04:18:41.366Z,5.22
2023-02-26T04:21:11.518Z,4.53
2023-02-26T04:23:38.318Z,5.88
2023-02-26T04:26:05.086Z,5.28
2023-02-26T04:28:31.564Z,10.40
2023-02-26T04:30:58.189Z,5.25
2023-02-26T04:33:24.839Z,6.00
2023-02-26T04:35:51.450Z,5.95
2023-02-26T04:38:17.897Z,6.00
2023-02-26T04:40:44.379Z,4.15
2023-02-26T04:43:10.912Z,6.57
2023-02-26T04:45:37.456Z,6.97
2023-02-26T04:48:04.167Z,3.97
2023-02-26T04:50:30.718Z,5.85
2023-02-26T04:52:57.271Z,5.65
2023-02-26T04:55:23.908Z,4.28
2023-02-26T04:57:50.489Z,7.18
2023-02-26T05:00:17.636Z,7.65
2023-02-26T05:02:44.263Z,7.15
2023-02-26T05:05:10.835Z,4.53
2023-02-26T05:07:37.932Z,6.32
2023-02-26T05:10:06.784Z,5.78
2023-02-26T05:12:33.653Z,4.50
2023-02-26T05:15:00.149Z,5.05
2023-02-26T05:17:26.781Z,5.55
2023-02-26T05:19:53.295Z,6.00
2023-02-26T05:22:20.413Z,5.40
2023-02-26T05:24:47.002Z,6.68
2023-02-26T05:27:13.771Z,5.80
2023-02-26T05:29:42.205Z,6.18
2023-02-26T05:32:08.923Z,5.68
2023-02-26T05:34:35.512Z,5.82
2023-02-26T05:37:02.031Z,5.93
2023-02-26T05:39:28.914Z,5.95
2023-02-26T05:41:56.996Z,7.32
2023-02-26T05:44:23.724Z,5.65
2023-02-26T05:46:50.577Z,5.43
2023-02-26T05:49:17.300Z,6.03
2023-02-26T05:51:43.873Z,5.72
2023-02-26T05:54:10.780Z,7.32
2023-02-26T05:56:37.394Z,4.32
2023-02-26T05:59:04.257Z,4.95
2023-02-26T06:01:31.120Z,5.45
2023-02-26T06:03:57.721Z,5.50
2023-02-26T06:06:25.846Z,5.85
2023-02-26T06:08:52.656Z,5.97
2023-02-26T06:11:19.233Z,7.63
2023-02-26T06:13:45.813Z,6.07
2023-02-26T06:16:12.422Z,7.47
2023-02-26T06:18:39.004Z,9.10
2023-02-26T06:21:06.078Z,9.15
2023-02-26T06:23:32.586Z,7.78
2023-02-26T06:26:00.060Z,5.88
2023-02-26T06:28:27.078Z,6.80
2023-02-26T06:30:54.093Z,7.35
2023-02-26T06:33:20.900Z,8.45
2023-02-26T06:35:47.869Z,7.22
2023-02-26T06:38:14.671Z,7.72
2023-02-26T06:40:41.466Z,6.72
2023-02-26T06:43:08.166Z,5.60
2023-02-26T06:45:35.126Z,6.35
2023-02-26T06:48:02.201Z,9.02
2023-02-26T06:50:28.742Z,6.68
2023-02-26T06:52:55.368Z,6.15
2023-02-26T06:55:22.071Z,6.15
2023-02-26T06:57:48.707Z,6.68
2023-02-26T07:00:15.820Z,7.03
2023-02-26T07:02:42.449Z,7.82
2023-02-26T07:05:09.512Z,5.88
2023-02-26T07:07:36.122Z,7.18
2023-02-26T07:10:02.708Z,7.60
2023-02-26T07:12:29.461Z,7.15
2023-02-26T07:14:56.030Z,6.70
2023-02-26T07:17:22.679Z,6.43
2023-02-26T07:19:51.889Z,6.78
2023-02-26T07:22:21.917Z,7.97
2023-02-26T07:24:49.915Z,8.88
2023-02-26T07:27:16.492Z,8.10
2023-02-26T07:29:43.087Z,7.85
2023-02-26T07:32:09.896Z,7.85
2023-02-26T07:34:36.440Z,8.07
2023-02-26T07:37:02.973Z,6.88
2023-02-26T07:39:29.625Z,7.32
2023-02-26T07:41:56.245Z,6.05
2023-02-26T07:44:22.824Z,5.05
2023-02-26T07:46:50.141Z,6.75
2023-02-26T07:49:16.703Z,6.80
2023-02-26T07:51:45.957Z,6.22
2023-02-26T07:54:13.517Z,7.03
2023-02-26T07:56:41.297Z,6.60
2023-02-26T07:59:08.018Z,5.78
2023-02-26T08:01:34.897Z,6.40
2023-02-26T08:04:01.891Z,6.03
2023-02-26T08:06:29.623Z,5.95
2023-02-26T08:08:56.326Z,6.22
2023-02-26T08:11:23.079Z,6.97
2023-02-26T08:13:49.681Z,4.88
2023-02-26T08:16:16.348Z,6.40
2023-02-26T08:18:42.925Z,8.57
2023-02-26T08:21:09.536Z,6.20
2023-02-26T08:23:36.247Z,8.35
2023-02-26T08:26:05.185Z,6.57
2023-02-26T08:28:33.140Z,5.70
2023-02-26T08:31:01.167Z,5.32
2023-02-26T08:33:29.271Z,5.05
2023-02-26T08:35:59.113Z,7.10
2023-02-26T08:38:27.870Z,6.47
2023-02-26T08:40:54.611Z,6.47
2023-02-26T08:43:21.587Z,4.90
2023-02-26T08:45:48.830Z,5.72
2023-02-26T08:48:15.619Z,5.07
2023-02-26T08:50:42.182Z,6.13
2023-02-26T08:53:08.738Z,5.78
2023-02-26T08:55:35.295Z,5.05
2023-02-26T08:58:02.189Z,5.05
2023-02-26T09:00:29.380Z,7.90
2023-02-26T09:02:56.426Z,9.75
2023-02-26T09:05:24.813Z,7.93
2023-02-26T09:07:51.352Z,9.23
2023-02-26T09:10:18.266Z,8.80
2023-02-26T09:12:45.203Z,6.88
2023-02-26T09:15:12.770Z,7.65
2023-02-26T09:17:39.256Z,7.65
2023-02-26T09:20:07.207Z,7.53
2023-02-26T09:22:34.024Z,8.60
2023-02-26T09:25:00.861Z,7.18
2023-02-26T09:27:27.560Z,6.82
2023-02-26T09:29:54.174Z,7.30
2023-02-26T09:32:21.000Z,6.82
2023-02-26T09:34:47.730Z,8.68
2023-02-26T09:37:14.500Z,9.18
2023-02-26T09:39:41.043Z,5.63
2023-02-26T09:42:19.044Z,7.45
2023-02-26T09:44:47.852Z,8.23
2023-02-26T09:47:23.860Z,5.75
2023-02-26T09:50:07.277Z,6.05
2023-02-26T09:53:28.078Z,5.82
2023-02-26T09:56:05.833Z,5.82
2023-02-26T09:58:36.682Z,8.73
2023-02-26T10:01:21.494Z,4.43
2023-02-26T10:04:11.826Z,7.80
2023-02-26T10:06:50.375Z,6.53
2023-02-26T10:09:32.170Z,4.50
2023-02-26T10:12:15.980Z,6.35
2023-02-26T10:14:57.877Z,6.22
2023-02-26T10:17:35.617Z,6.13
2023-02-26T10:20:11.987Z,7.00
2023-02-26T10:23:02.000Z,9.68
2023-02-26T10:25:39.224Z,6.68
2023-02-26T10:28:14.824Z,7.40
2023-02-26T10:30:49.922Z,4.97
2023-02-26T10:33:34.247Z,4.80
2023-02-26T10:36:15.238Z,7.60
2023-02-26T10:38:44.226Z,5.38
2023-02-26T10:41:15.984Z,4.80
2023-02-26T10:43:48.032Z,6.88
2023-02-26T10:46:23.808Z,5.60
2023-02-26T10:49:08.957Z,5.85
2023-02-26T10:51:40.846Z,7.55
2023-02-26T10:54:16.908Z,6.03
2023-02-26T10:56:43.614Z,5.00
2023-02-26T10:59:10.153Z,6.15
2023-02-26T11:01:37.061Z,6.80
2023-02-26T11:04:13.197Z,6.25
2023-02-26T11:06:53.720Z,6.97
2023-02-26T11:09:22.880Z,6.18
2023-02-26T11:11:54.426Z,4.18
2023-02-26T11:14:25.423Z,10.93
2023-02-26T11:16:57.474Z,4.97
2023-02-26T11:19:31.271Z,5.30
2023-02-26T11:21:59.692Z,4.68
2023-02-26T11:24:34.167Z,7.00
2023-02-26T11:27:04.359Z,11.60
2023-02-26T11:29:43.110Z,6.90
2023-02-26T11:32:19.828Z,6.97
2023-02-26T11:34:49.206Z,6.75
2023-02-26T11:37:27.961Z,5.55
2023-02-26T11:40:04.040Z,5.85
2023-02-26T11:42:35.601Z,6.03
2023-02-26T11:45:02.206Z,6.38
2023-02-26T11:47:31.001Z,5.68
2023-02-26T11:50:05.633Z,5.40
2023-02-26T11:52:41.358Z,5.45
2023-02-26T11:55:32.058Z,3.72
2023-02-26T11:57:58.693Z,3.35
2023-02-26T12:00:46.615Z,6.72
2023-02-26T12:03:22.459Z,4.82
2023-02-26T12:05:50.735Z,4.82
2023-02-26T12:08:26.312Z,6.68
2023-02-26T12:11:09.364Z,4.32
2023-02-26T12:13:38.828Z,4.65
2023-02-26T12:16:14.881Z,5.75
2023-02-26T12:19:02.660Z,6.40
2023-02-26T12:21:45.529Z,5.63
2023-02-26T12:24:18.047Z,6.85
2023-02-26T12:27:19.619Z,7.57
2023-02-26T12:29:48.891Z,7.38
2023-02-26T12:32:33.841Z,7.57
2023-02-26T12:35:03.654Z,9.05
2023-02-26T12:37:59.382Z,14.57
2023-02-26T12:43:22.193Z,7.10
2023-02-26T12:46:21.279Z,10.43
2023-02-26T12:49:05.258Z,6.88
2023-02-26T12:51:49.405Z,5.85
2023-02-26T12:54:47.048Z,6.00
2023-02-26T12:57:44.581Z,7.32
2023-02-26T13:00:18.232Z,7.50
2023-02-26T13:02:57.345Z,5.10
2023-02-26T13:05:26.965Z,4.45
2023-02-26T13:07:59.218Z,3.63
2023-02-26T13:11:07.258Z,4.07
2023-02-26T13:13:52.644Z,4.13
2023-02-26T13:18:57.220Z,5.30
2023-02-26T13:21:29.665Z,6.75
2023-02-26T13:24:23.420Z,13.63
2023-02-26T13:26:52.110Z,4.90
2023-02-26T13:29:24.635Z,5.18
2023-02-26T13:31:57.601Z,7.28
2023-02-26T13:34:40.073Z,4.00
2023-02-26T13:37:16.882Z,5.78
2023-02-26T13:40:13.154Z,6.93
2023-02-26T13:43:12.145Z,9.98
2023-02-26T13:45:53.946Z,15.95
2023-02-26T13:48:45.220Z,14.88
2023-02-26T13:51:30.738Z,7.63
2023-02-26T13:54:02.057Z,6.38
2023-02-26T13:56:31.233Z,5.40
2023-02-26T13:59:13.247Z,6.13
2023-02-26T14:01:57.638Z,5.05
2023-02-26T14:04:29.194Z,5.20
2023-02-26T14:07:16.686Z,9.18
2023-02-26T14:09:56.404Z,6.97
2023-02-26T14:12:30.823Z,7.72
2023-02-26T14:15:00.209Z,6.78
2023-02-26T14:17:51.282Z,7.05
2023-02-26T14:20:29.512Z,8.13
2023-02-26T14:23:09.599Z,9.93
2023-02-26T14:25:46.705Z,9.88
2023-02-26T14:28:20.433Z,8.93
2023-02-26T14:30:50.743Z,7.13
2023-02-26T14:33:20.006Z,6.22
2023-02-26T14:35:50.442Z,4.50
2023-02-26T14:38:36.155Z,6.68
2023-02-26T14:41:10.612Z,7.47
2023-02-26T14:43:41.365Z,5.35
2023-02-26T14:46:10.345Z,6.25
2023-02-26T14:48:38.129Z,13.20
2023-02-26T14:51:23.333Z,6.75
2023-02-26T14:54:11.773Z,7.00
2023-02-26T14:57:01.523Z,6.28
2023-02-26T15:00:14.009Z,7.32
2023-02-26T15:03:07.766Z,10.00
2023-02-26T15:05:34.233Z,15.55
2023-02-26T15:08:16.499Z,9.20
2023-02-26T15:10:45.894Z,5.95
2023-02-26T15:13:12.850Z,5.60
2023-02-26T15:16:02.351Z,6.25
2023-02-26T15:18:44.166Z,5.07
2023-02-26T15:21:10.770Z,5.97
2023-02-26T15:23:44.369Z,5.45
2023-02-26T15:26:19.312Z,7.20
2023-02-26T15:31:13.898Z,3.92
2023-02-26T15:33:41.157Z,5.03
2023-02-26T15:36:13.652Z,5.32
2023-02-26T15:38:54.590Z,4.97
2023-02-26T15:41:22.409Z,5.70
2023-02-26T15:43:55.737Z,6.57
2023-02-26T15:46:31.692Z,8.32
2023-02-26T15:49:05.300Z,10.73
2023-02-26T15:51:32.868Z,8.15
2023-02-26T15:54:03.298Z,7.90
2023-02-26T15:56:34.084Z,5.43
2023-02-26T15:59:06.646Z,5.38
2023-02-26T16:01:33.433Z,6.80
2023-02-26T16:04:07.644Z,22.25
2023-02-26T16:06:41.676Z,27.88
2023-02-26T16:09:17.978Z,38.05
2023-02-26T16:11:46.217Z,41.10
2023-02-26T16:14:22.930Z,10.70
2023-02-26T16:16:52.972Z,5.90
2023-02-26T16:19:47.391Z,3.42
2023-02-26T16:22:25.794Z,6.43
2023-02-26T16:25:02.265Z,6.03
2023-02-26T16:27:30.901Z,10.05
2023-02-26T16:30:00.564Z,14.05
2023-02-26T16:32:31.168Z,4.53
2023-02-26T16:35:01.082Z,4.78
2023-02-26T16:37:31.867Z,6.30
2023-02-26T16:40:05.021Z,6.68
2023-02-26T16:42:50.831Z,5.85
2023-02-26T16:45:35.340Z,6.18
2023-02-26T16:48:14.601Z,5.63
2023-02-26T16:50:41.186Z,5.97
2023-02-26T16:53:18.288Z,8.50
2023-02-26T16:55:52.893Z,8.63
2023-02-26T16:58:21.928Z,6.80
2023-02-26T17:00:59.943Z,6.68
2023-02-26T17:03:29.926Z,5.13
2023-02-26T17:06:03.397Z,5.30
2023-02-26T17:09:00.505Z,6.57
2023-02-26T17:11:30.763Z,9.13
2023-02-26T17:14:04.511Z,6.60
2023-02-26T17:16:31.060Z,7.53
2023-02-26T17:18:57.755Z,7.13
2023-02-26T17:21:24.601Z,11.20
2023-02-26T17:23:51.281Z,9.73
2023-02-26T17:26:17.902Z,8.70
2023-02-26T17:28:44.616Z,9.32
2023-02-26T17:31:12.764Z,8.80
2023-02-26T17:33:42.317Z,8.30
2023-02-26T17:36:15.138Z,8.23
2023-02-26T17:38:47.058Z,9.45
2023-02-26T17:41:18.257Z,12.13
2023-02-26T17:43:44.880Z,9.85
2023-02-26T17:46:12.449Z,11.80
2023-02-26T17:48:39.611Z,10.43
2023-02-26T17:51:07.196Z,9.75
2023-02-26T17:53:34.066Z,10.15
2023-02-26T17:56:03.447Z,8.65
2023-02-26T17:58:33.825Z,11.40
2023-02-26T18:01:02.750Z,8.02
2023-02-26T18:03:29.400Z,9.75
2023-02-26T18:05:57.050Z,8.18
2023-02-26T18:08:27.004Z,9.63
2023-02-26T18:10:54.513Z,10.15
2023-02-26T18:13:22.214Z,9.65
2023-02-26T18:15:50.014Z,10.18
2023-02-26T18:18:23.654Z,10.15
2023-02-26T18:20:50.390Z,11.07
2023-02-26T18:23:17.354Z,8.82
2023-02-26T18:25:46.699Z,10.05
2023-02-26T18:28:20.649Z,11.20
2023-02-26T18:30:48.358Z,8.18
2023-02-26T18:33:17.138Z,11.07
2023-02-26T18:35:45.988Z,9.00
2023-02-26T18:38:16.123Z,8.80
2023-02-26T18:40:43.194Z,7.85
2023-02-26T18:43:12.622Z,8.07
2023-02-26T18:45:40.946Z,8.25
2023-02-26T18:48:09.245Z,8.75
2023-02-26T18:50:35.877Z,9.70
2023-02-26T18:53:02.853Z,8.95
2023-02-26T18:55:32.331Z,8.60
2023-02-26T18:57:58.951Z,11.13
2023-02-26T19:00:28.143Z,10.85
2023-02-26T19:02:55.426Z,10.07
2023-02-26T19:05:26.655Z,8.95
2023-02-26T19:07:54.635Z,7.32
2023-02-26T19:10:21.997Z,9.40
2023-02-26T19:12:50.328Z,8.32
2023-02-26T19:15:17.052Z,8.82
2023-02-26T19:17:43.818Z,10.68
2023-02-26T19:20:10.898Z,10.90
2023-02-26T19:22:37.874Z,9.60
2023-02-26T19:25:05.200Z,8.27
2023-02-26T19:27:31.930Z,10.25
2023-02-26T19:29:58.519Z,9.32
2023-02-26T19:32:26.599Z,10.23
2023-02-26T19:34:55.433Z,10.90
2023-02-26T19:37:22.244Z,10.48
2023-02-26T19:39:49.068Z,10.57
2023-02-26T19:42:15.871Z,10.57
2023-02-26T19:44:42.420Z,13.35
2023-02-26T19:47:11.871Z,11.70
2023-02-26T19:49:38.403Z,9.75
2023-02-26T19:52:07.026Z,10.88
2023-02-26T19:54:36.627Z,12.13
2023-02-26T19:57:03.361Z,13.73
2023-02-26T19:59:29.980Z,12.13
2023-02-26T20:01:56.664Z,11.52
2023-02-26T20:04:23.189Z,9.98
2023-02-26T20:06:49.763Z,8.90
2023-02-26T20:09:17.294Z,19.27
2023-02-26T20:11:43.989Z,12.07
2023-02-26T20:14:10.689Z,11.70
2023-02-26T20:16:37.256Z,13.18
2023-02-26T20:19:03.920Z,11.20
2023-02-26T20:21:30.558Z,12.88
2023-02-26T20:23:57.737Z,11.18
2023-02-26T20:26:24.752Z,13.23
2023-02-26T20:28:51.399Z,11.73
2023-02-26T20:31:18.168Z,14.73
2023-02-26T20:33:45.045Z,13.32
2023-02-26T20:36:11.649Z,13.85
2023-02-26T20:38:38.253Z,12.75
2023-02-26T20:41:05.301Z,11.57
2023-02-26T20:43:32.577Z,13.23
2023-02-26T20:45:59.181Z,9.57
2023-02-26T20:48:26.612Z,12.40
2023-02-26T20:50:58.151Z,19.00
2023-02-26T20:53:24.659Z,10.50
2023-02-26T20:55:51.232Z,9.05
2023-02-26T20:58:17.872Z,10.30
2023-02-26T21:00:45.838Z,8.95
2023-02-26T21:03:12.429Z,8.57
2023-02-26T21:05:39.039Z,8.60
2023-02-26T21:08:05.849Z,9.95
2023-02-26T21:10:32.840Z,9.45
2023-02-26T21:13:03.034Z,9.98
2023-02-26T21:15:29.569Z,10.05
2023-02-26T21:17:56.042Z,7.78
2023-02-26T21:20:23.389Z,10.35
2023-02-26T21:22:50.499Z,11.77
2023-02-26T21:25:17.700Z,7.28
2023-02-26T21:27:44.244Z,10.10
2023-02-26T21:30:12.228Z,7.13
2023-02-26T21:32:39.129Z,7.03
2023-02-26T21:35:07.672Z,7.85
2023-02-26T21:37:34.322Z,7.65
2023-02-26T21:40:00.913Z,7.63
2023-02-26T21:42:27.617Z,8.98
2023-02-26T21:44:54.148Z,9.05
2023-02-26T21:47:20.673Z,7.47
2023-02-26T21:49:47.345Z,6.32
2023-02-26T21:52:13.909Z,11.18
2023-02-26T21:54:40.907Z,7.80
2023-02-26T21:57:07.887Z,7.95
2023-02-26T21:59:35.039Z,9.23
2023-02-26T22:02:02.034Z,7.72
2023-02-26T22:04:28.971Z,7.20
2023-02-26T22:06:56.091Z,9.48
2023-02-26T22:09:23.037Z,9.07
2023-02-26T22:11:49.635Z,6.80
2023-02-26T22:14:16.859Z,7.40
2023-02-26T22:16:43.502Z,10.25
2023-02-26T22:19:10.101Z,14.43
2023-02-26T22:21:36.677Z,6.35
2023-02-26T22:24:03.866Z,10.40
2023-02-26T22:26:30.780Z,7.20
2023-02-26T22:29:00.144Z,6.50
2023-02-26T22:31:29.167Z,7.60
2023-02-26T22:33:57.347Z,10.35
2023-02-26T22:36:24.656Z,6.93
2023-02-26T22:38:51.180Z,7.45
2023-02-26T22:41:17.766Z,8.90
2023-02-26T22:43:44.277Z,9.57
2023-02-26T22:46:10.968Z,7.00
2023-02-26T22:48:37.517Z,7.63
2023-02-26T22:51:04.073Z,10.48
2023-02-26T22:53:32.023Z,9.68
2023-02-26T22:55:58.627Z,8.10
2023-02-26T22:58:25.236Z,11.50
2023-02-26T23:01:02.074Z,9.07
2023-02-26T23:03:29.605Z,6.97
2023-02-26T23:05:56.941Z,7.13
2023-02-26T23:08:23.644Z,8.90
2023-02-26T23:10:53.239Z,9.02
2023-02-26T23:13:19.772Z,9.32
2023-02-26T23:15:47.082Z,8.18
2023-02-26T23:18:13.624Z,9.20
2023-02-26T23:20:40.170Z,8.35
2023-02-26T23:23:06.842Z,8.05
2023-02-26T23:25:33.559Z,7.35
2023-02-26T23:28:00.255Z,8.30
2023-02-26T23:30:28.348Z,12.13
2023-02-26T23:32:56.385Z,9.65
2023-02-26T23:35:22.917Z,7.10
2023-02-26T23:37:49.487Z,8.20
2023-02-26T23:40:16.298Z,6.95
2023-02-26T23:42:43.348Z,7.05
2023-02-26T23:45:10.689Z,11.02
2023-02-26T23:47:37.399Z,8.45
2023-02-26T23:50:05.250Z,8.32
2023-02-26T23:52:32.173Z,9.18
2023-02-26T23:54:58.750Z,6.75
2023-02-26T23:57:25.690Z,10.48
2023-02-26T23:59:52.316Z,7.15
